sensor_id;sensor_type;location;lat;lon;timestamp;P1;durP1;ratioP1;P2;durP2;ratioP2
44036;SDS011;62488;-37.670;-63.532;2022-09-01T00:02:23;47.63;;;10.60;;
44036;SDS011;62488;-37.670;-63.532;2022-09-01T00:04:52;54.17;;;10.50;;
44036;SDS011;62488;-37.670;-63.532;2022-09-01T00:07:24;78.15;;;13.57;;
44036;SDS011;62488;-37.670;-63.532;2022-09-01T00:09:54;85.55;;;17.48;;
44036;SDS011;62488;-37.670;-63.532;2022-09-01T00:12:21;98.28;;;17.98;;
44036;SDS011;62488;-37.670;-63.532;2022-09-01T00:14:50;99.25;;;14.75;;
44036;SDS011;62488;-37.670;-63.532;2022-09-01T00:17:17;98.95;;;17.25;;
44036;SDS011;62488;-37.670;-63.532;2022-09-01T00:19:44;93.63;;;16.95;;
44036;SDS011;62488;-37.670;-63.532;2022-09-01T00:22:11;104.15;;;19.80;;
44036;SDS011;62488;-37.670;-63.532;2022-09-01T00:24:38;183.65;;;25.52;;
44036;SDS011;62488;-37.670;-63.532;2022-09-01T00:27:05;152.50;;;23.25;;
44036;SDS011;62488;-37.670;-63.532;2022-09-01T00:29:32;109.30;;;17.55;;
44036;SDS011;62488;-37.670;-63.532;2022-09-01T00:31:59;69.38;;;16.42;;
44036;SDS011;62488;-37.670;-63.532;2022-09-01T00:34:26;86.57;;;14.27;;
44036;SDS011;62488;-37.670;-63.532;2022-09-01T00:36:53;65.35;;;15.25;;
44036;SDS011;62488;-37.670;-63.532;2022-09-01T00:39:20;81.50;;;15.85;;
44036;SDS011;62488;-37.670;-63.532;2022-09-01T00:41:47;76.07;;;16.10;;
44036;SDS011;62488;-37.670;-63.532;2022-09-01T00:44:17;97.10;;;18.60;;
44036;SDS011;62488;-37.670;-63.532;2022-09-01T00:46:52;63.20;;;13.90;;
44036;SDS011;62488;-37.670;-63.532;2022-09-01T00:52:10;49.08;;;10.88;;
44036;SDS011;62488;-37.670;-63.532;2022-09-01T00:54:56;56.83;;;10.40;;
44036;SDS011;62488;-37.670;-63.532;2022-09-01T00:57:27;25.10;;;7.97;;
44036;SDS011;62488;-37.670;-63.532;2022-09-01T01:00:06;43.60;;;9.45;;
44036;SDS011;62488;-37.670;-63.532;2022-09-01T01:02:37;40.97;;;9.63;;
44036;SDS011;62488;-37.670;-63.532;2022-09-01T01:05:06;51.10;;;12.20;;
44036;SDS011;62488;-37.670;-63.532;2022-09-01T01:07:34;47.47;;;13.48;;
44036;SDS011;62488;-37.670;-63.532;2022-09-01T01:10:06;58.05;;;11.88;;
44036;SDS011;62488;-37.670;-63.532;2022-09-01T01:12:37;53.63;;;11.35;;
44036;SDS011;62488;-37.670;-63.532;2022-09-01T01:15:05;47.75;;;10.00;;
44036;SDS011;62488;-37.670;-63.532;2022-09-01T01:17:34;40.40;;;8.65;;
44036;SDS011;62488;-37.670;-63.532;2022-09-01T01:20:01;54.38;;;9.70;;
44036;SDS011;62488;-37.670;-63.532;2022-09-01T01:28:04;42.10;;;9.18;;
44036;SDS011;62488;-37.670;-63.532;2022-09-01T01:30:38;41.53;;;8.02;;
44036;SDS011;62488;-37.670;-63.532;2022-09-01T01:33:09;38.60;;;7.47;;
44036;SDS011;62488;-37.670;-63.532;2022-09-01T01:35:36;36.38;;;7.95;;
44036;SDS011;62488;-37.670;-63.532;2022-09-01T01:38:04;29.63;;;7.28;;
44036;SDS011;62488;-37.670;-63.532;2022-09-01T01:40:32;46.90;;;9.32;;
44036;SDS011;62488;-37.670;-63.532;2022-09-01T01:43:00;36.83;;;8.70;;
44036;SDS011;62488;-37.670;-63.532;2022-09-01T01:45:28;50.15;;;10.07;;
44036;SDS011;62488;-37.670;-63.532;2022-09-01T01:47:55;69.75;;;19.83;;
44036;SDS011;62488;-37.670;-63.532;2022-09-01T01:50:28;69.65;;;15.68;;
44036;SDS011;62488;-37.670;-63.532;2022-09-01T01:53:01;48.70;;;12.80;;
44036;SDS011;62488;-37.670;-63.532;2022-09-01T01:55:30;40.22;;;11.18;;
44036;SDS011;62488;-37.670;-63.532;2022-09-01T01:57:58;23.92;;;8.55;;
44036;SDS011;62488;-37.670;-63.532;2022-09-01T02:00:30;33.05;;;9.88;;
44036;SDS011;62488;-37.670;-63.532;2022-09-01T02:02:59;42.05;;;9.77;;
44036;SDS011;62488;-37.670;-63.532;2022-09-01T02:05:27;38.15;;;10.20;;
44036;SDS011;62488;-37.670;-63.532;2022-09-01T02:08:01;26.48;;;7.82;;
44036;SDS011;62488;-37.670;-63.532;2022-09-01T02:10:35;37.20;;;8.40;;
44036;SDS011;62488;-37.670;-63.532;2022-09-01T02:13:08;30.63;;;8.10;;
44036;SDS011;62488;-37.670;-63.532;2022-09-01T02:15:46;35.05;;;7.93;;
44036;SDS011;62488;-37.670;-63.532;2022-09-01T02:18:22;29.98;;;7.05;;
44036;SDS011;62488;-37.670;-63.532;2022-09-01T02:21:01;40.80;;;8.13;;
44036;SDS011;62488;-37.670;-63.532;2022-09-01T02:23:34;21.65;;;6.90;;
44036;SDS011;62488;-37.670;-63.532;2022-09-01T02:26:04;33.78;;;6.55;;
44036;SDS011;62488;-37.670;-63.532;2022-09-01T02:28:35;25.88;;;6.88;;
44036;SDS011;62488;-37.670;-63.532;2022-09-01T02:31:07;37.50;;;7.30;;
44036;SDS011;62488;-37.670;-63.532;2022-09-01T02:33:36;89.72;;;15.02;;
44036;SDS011;62488;-37.670;-63.532;2022-09-01T02:36:05;69.72;;;10.20;;
44036;SDS011;62488;-37.670;-63.532;2022-09-01T02:38:37;27.08;;;7.55;;
44036;SDS011;62488;-37.670;-63.532;2022-09-01T02:41:07;35.97;;;7.43;;
44036;SDS011;62488;-37.670;-63.532;2022-09-01T02:43:34;35.50;;;7.88;;
44036;SDS011;62488;-37.670;-63.532;2022-09-01T02:46:02;45.80;;;9.75;;
44036;SDS011;62488;-37.670;-63.532;2022-09-01T02:48:32;19.33;;;5.63;;
44036;SDS011;62488;-37.670;-63.532;2022-09-01T02:51:06;37.08;;;7.90;;
44036;SDS011;62488;-37.670;-63.532;2022-09-01T02:53:35;37.10;;;7.93;;
44036;SDS011;62488;-37.670;-63.532;2022-09-01T02:56:04;19.63;;;6.50;;
44036;SDS011;62488;-37.670;-63.532;2022-09-01T02:58:39;42.05;;;8.02;;
44036;SDS011;62488;-37.670;-63.532;2022-09-01T03:01:15;22.85;;;6.40;;
44036;SDS011;62488;-37.670;-63.532;2022-09-01T03:03:59;33.60;;;6.38;;
44036;SDS011;62488;-37.670;-63.532;2022-09-01T03:06:28;27.83;;;6.43;;
44036;SDS011;62488;-37.670;-63.532;2022-09-01T03:08:58;16.95;;;5.75;;
44036;SDS011;62488;-37.670;-63.532;2022-09-01T03:11:26;24.83;;;7.07;;
44036;SDS011;62488;-37.670;-63.532;2022-09-01T03:13:56;28.88;;;7.90;;
44036;SDS011;62488;-37.670;-63.532;2022-09-01T03:16:23;19.60;;;6.80;;
44036;SDS011;62488;-37.670;-63.532;2022-09-01T03:18:50;19.60;;;5.85;;
44036;SDS011;62488;-37.670;-63.532;2022-09-01T03:21:18;28.13;;;7.78;;
44036;SDS011;62488;-37.670;-63.532;2022-09-01T03:23:46;19.35;;;6.38;;
44036;SDS011;62488;-37.670;-63.532;2022-09-01T03:26:15;23.83;;;7.72;;
44036;SDS011;62488;-37.670;-63.532;2022-09-01T03:28:44;29.35;;;6.72;;
44036;SDS011;62488;-37.670;-63.532;2022-09-01T03:31:11;20.05;;;7.10;;
44036;SDS011;62488;-37.670;-63.532;2022-09-01T03:33:39;19.80;;;6.15;;
44036;SDS011;62488;-37.670;-63.532;2022-09-01T03:36:06;39.00;;;6.15;;
44036;SDS011;62488;-37.670;-63.532;2022-09-01T03:38:34;20.45;;;6.30;;
44036;SDS011;62488;-37.670;-63.532;2022-09-01T03:41:02;17.52;;;4.80;;
44036;SDS011;62488;-37.670;-63.532;2022-09-01T03:43:32;16.83;;;7.53;;
44036;SDS011;62488;-37.670;-63.532;2022-09-01T03:45:59;36.50;;;12.13;;
44036;SDS011;62488;-37.670;-63.532;2022-09-01T03:48:30;31.27;;;7.28;;
44036;SDS011;62488;-37.670;-63.532;2022-09-01T03:50:57;20.08;;;5.57;;
44036;SDS011;62488;-37.670;-63.532;2022-09-01T03:53:28;29.38;;;5.72;;
44036;SDS011;62488;-37.670;-63.532;2022-09-01T03:55:58;36.83;;;5.88;;
44036;SDS011;62488;-37.670;-63.532;2022-09-01T03:58:25;34.38;;;6.80;;
44036;SDS011;62488;-37.670;-63.532;2022-09-01T04:00:54;23.20;;;6.47;;
44036;SDS011;62488;-37.670;-63.532;2022-09-01T04:03:27;22.10;;;5.85;;
44036;SDS011;62488;-37.670;-63.532;2022-09-01T04:05:56;14.70;;;6.57;;
44036;SDS011;62488;-37.670;-63.532;2022-09-01T04:08:27;15.63;;;6.28;;
44036;SDS011;62488;-37.670;-63.532;2022-09-01T04:10:59;22.30;;;5.57;;
44036;SDS011;62488;-37.670;-63.532;2022-09-01T04:13:30;15.98;;;6.47;;
44036;SDS011;62488;-37.670;-63.532;2022-09-01T04:16:01;24.10;;;6.25;;
44036;SDS011;62488;-37.670;-63.532;2022-09-01T04:18:48;17.27;;;5.13;;
44036;SDS011;62488;-37.670;-63.532;2022-09-01T04:21:16;13.63;;;4.93;;
44036;SDS011;62488;-37.670;-63.532;2022-09-01T04:23:44;41.83;;;6.40;;
44036;SDS011;62488;-37.670;-63.532;2022-09-01T04:26:11;22.45;;;5.25;;
44036;SDS011;62488;-37.670;-63.532;2022-09-01T04:28:48;15.82;;;4.85;;
44036;SDS011;62488;-37.670;-63.532;2022-09-01T04:31:20;14.82;;;5.35;;
44036;SDS011;62488;-37.670;-63.532;2022-09-01T04:33:50;18.77;;;6.05;;
44036;SDS011;62488;-37.670;-63.532;2022-09-01T04:36:19;23.88;;;6.13;;
44036;SDS011;62488;-37.670;-63.532;2022-09-01T04:38:49;14.93;;;5.90;;
44036;SDS011;62488;-37.670;-63.532;2022-09-01T04:41:22;26.02;;;5.40;;
44036;SDS011;62488;-37.670;-63.532;2022-09-01T04:46:22;15.30;;;4.78;;
44036;SDS011;62488;-37.670;-63.532;2022-09-01T04:48:55;17.35;;;3.83;;
44036;SDS011;62488;-37.670;-63.532;2022-09-01T04:51:23;22.92;;;4.80;;
44036;SDS011;62488;-37.670;-63.532;2022-09-01T04:53:55;21.38;;;6.00;;
44036;SDS011;62488;-37.670;-63.532;2022-09-01T04:56:24;14.05;;;4.70;;
44036;SDS011;62488;-37.670;-63.532;2022-09-01T05:01:22;13.20;;;4.75;;
44036;SDS011;62488;-37.670;-63.532;2022-09-01T05:03:50;15.18;;;4.90;;
44036;SDS011;62488;-37.670;-63.532;2022-09-01T05:06:26;16.65;;;5.05;;
44036;SDS011;62488;-37.670;-63.532;2022-09-01T05:08:54;19.80;;;4.70;;
44036;SDS011;62488;-37.670;-63.532;2022-09-01T05:11:22;16.52;;;4.70;;
44036;SDS011;62488;-37.670;-63.532;2022-09-01T05:13:50;12.43;;;5.50;;
44036;SDS011;62488;-37.670;-63.532;2022-09-01T05:16:22;16.45;;;4.70;;
44036;SDS011;62488;-37.670;-63.532;2022-09-01T05:18:52;13.07;;;4.85;;
44036;SDS011;62488;-37.670;-63.532;2022-09-01T05:21:22;25.73;;;6.47;;
44036;SDS011;62488;-37.670;-63.532;2022-09-01T05:23:51;14.73;;;4.90;;
44036;SDS011;62488;-37.670;-63.532;2022-09-01T05:26:23;13.80;;;4.93;;
44036;SDS011;62488;-37.670;-63.532;2022-09-01T05:28:53;20.75;;;4.95;;
44036;SDS011;62488;-37.670;-63.532;2022-09-01T05:33:48;20.15;;;5.65;;
44036;SDS011;62488;-37.670;-63.532;2022-09-01T05:36:17;15.88;;;4.80;;
44036;SDS011;62488;-37.670;-63.532;2022-09-01T05:38:47;20.38;;;5.90;;
44036;SDS011;62488;-37.670;-63.532;2022-09-01T05:41:17;31.42;;;6.15;;
44036;SDS011;62488;-37.670;-63.532;2022-09-01T05:43:46;16.02;;;5.38;;
44036;SDS011;62488;-37.670;-63.532;2022-09-01T05:46:17;22.10;;;5.78;;
44036;SDS011;62488;-37.670;-63.532;2022-09-01T05:48:48;20.80;;;5.95;;
44036;SDS011;62488;-37.670;-63.532;2022-09-01T05:51:18;16.92;;;5.78;;
44036;SDS011;62488;-37.670;-63.532;2022-09-01T05:53:48;18.15;;;5.93;;
44036;SDS011;62488;-37.670;-63.532;2022-09-01T05:56:16;18.17;;;5.97;;
44036;SDS011;62488;-37.670;-63.532;2022-09-01T05:58:47;24.35;;;6.07;;
44036;SDS011;62488;-37.670;-63.532;2022-09-01T06:01:16;18.08;;;5.18;;
44036;SDS011;62488;-37.670;-63.532;2022-09-01T06:03:49;20.30;;;6.00;;
44036;SDS011;62488;-37.670;-63.532;2022-09-01T06:06:20;19.33;;;6.13;;
44036;SDS011;62488;-37.670;-63.532;2022-09-01T06:08:51;18.50;;;5.78;;
44036;SDS011;62488;-37.670;-63.532;2022-09-01T06:11:24;15.90;;;6.75;;
44036;SDS011;62488;-37.670;-63.532;2022-09-01T06:13:52;13.38;;;5.43;;
44036;SDS011;62488;-37.670;-63.532;2022-09-01T06:16:20;27.45;;;6.88;;
44036;SDS011;62488;-37.670;-63.532;2022-09-01T06:18:49;23.55;;;6.70;;
44036;SDS011;62488;-37.670;-63.532;2022-09-01T06:21:18;19.25;;;6.80;;
44036;SDS011;62488;-37.670;-63.532;2022-09-01T06:23:47;24.75;;;6.32;;
44036;SDS011;62488;-37.670;-63.532;2022-09-01T06:26:24;19.35;;;6.43;;
44036;SDS011;62488;-37.670;-63.532;2022-09-01T06:28:54;17.95;;;6.63;;
44036;SDS011;62488;-37.670;-63.532;2022-09-01T06:31:24;17.80;;;5.32;;
44036;SDS011;62488;-37.670;-63.532;2022-09-01T06:33:59;18.92;;;6.15;;
44036;SDS011;62488;-37.670;-63.532;2022-09-01T06:36:30;16.08;;;6.78;;
44036;SDS011;62488;-37.670;-63.532;2022-09-01T06:39:02;16.30;;;6.40;;
44036;SDS011;62488;-37.670;-63.532;2022-09-01T06:41:29;14.38;;;6.43;;
44036;SDS011;62488;-37.670;-63.532;2022-09-01T06:43:56;23.02;;;6.22;;
44036;SDS011;62488;-37.670;-63.532;2022-09-01T06:46:26;18.88;;;6.57;;
44036;SDS011;62488;-37.670;-63.532;2022-09-01T06:48:54;21.85;;;7.47;;
44036;SDS011;62488;-37.670;-63.532;2022-09-01T06:51:23;24.23;;;6.38;;
44036;SDS011;62488;-37.670;-63.532;2022-09-01T06:53:56;17.55;;;6.78;;
44036;SDS011;62488;-37.670;-63.532;2022-09-01T06:56:29;20.58;;;6.85;;
44036;SDS011;62488;-37.670;-63.532;2022-09-01T06:58:58;19.90;;;6.78;;
44036;SDS011;62488;-37.670;-63.532;2022-09-01T07:01:30;21.20;;;7.30;;
44036;SDS011;62488;-37.670;-63.532;2022-09-01T07:04:00;24.45;;;6.72;;
44036;SDS011;62488;-37.670;-63.532;2022-09-01T07:06:27;19.13;;;6.82;;
44036;SDS011;62488;-37.670;-63.532;2022-09-01T07:08:56;24.73;;;7.53;;
44036;SDS011;62488;-37.670;-63.532;2022-09-01T07:11:28;24.20;;;7.85;;
44036;SDS011;62488;-37.670;-63.532;2022-09-01T07:14:00;20.90;;;7.78;;
44036;SDS011;62488;-37.670;-63.532;2022-09-01T07:16:29;17.77;;;7.70;;
44036;SDS011;62488;-37.670;-63.532;2022-09-01T07:19:04;21.83;;;6.80;;
44036;SDS011;62488;-37.670;-63.532;2022-09-01T07:21:39;16.85;;;6.30;;
44036;SDS011;62488;-37.670;-63.532;2022-09-01T07:24:08;22.02;;;7.53;;
44036;SDS011;62488;-37.670;-63.532;2022-09-01T07:26:39;20.38;;;6.85;;
44036;SDS011;62488;-37.670;-63.532;2022-09-01T07:29:07;17.08;;;6.55;;
44036;SDS011;62488;-37.670;-63.532;2022-09-01T07:31:35;27.08;;;7.65;;
44036;SDS011;62488;-37.670;-63.532;2022-09-01T07:34:09;24.67;;;7.38;;
44036;SDS011;62488;-37.670;-63.532;2022-09-01T07:36:42;22.80;;;7.65;;
44036;SDS011;62488;-37.670;-63.532;2022-09-01T07:39:10;18.48;;;6.90;;
44036;SDS011;62488;-37.670;-63.532;2022-09-01T07:41:38;22.50;;;6.33;;
44036;SDS011;62488;-37.670;-63.532;2022-09-01T07:44:07;17.98;;;7.28;;
44036;SDS011;62488;-37.670;-63.532;2022-09-01T07:46:37;20.17;;;6.68;;
44036;SDS011;62488;-37.670;-63.532;2022-09-01T07:49:04;27.13;;;7.82;;
44036;SDS011;62488;-37.670;-63.532;2022-09-01T07:51:32;21.63;;;6.93;;
44036;SDS011;62488;-37.670;-63.532;2022-09-01T07:53:59;22.92;;;6.97;;
44036;SDS011;62488;-37.670;-63.532;2022-09-01T07:56:27;25.25;;;6.95;;
44036;SDS011;62488;-37.670;-63.532;2022-09-01T07:58:57;20.98;;;6.68;;
44036;SDS011;62488;-37.670;-63.532;2022-09-01T08:01:27;23.80;;;7.55;;
44036;SDS011;62488;-37.670;-63.532;2022-09-01T08:03:55;21.20;;;6.35;;
44036;SDS011;62488;-37.670;-63.532;2022-09-01T08:08:53;15.80;;;6.55;;
44036;SDS011;62488;-37.670;-63.532;2022-09-01T08:11:28;19.63;;;5.30;;
44036;SDS011;62488;-37.670;-63.532;2022-09-01T08:13:56;18.35;;;6.32;;
44036;SDS011;62488;-37.670;-63.532;2022-09-01T08:16:25;13.23;;;7.40;;
44036;SDS011;62488;-37.670;-63.532;2022-09-01T08:18:54;23.33;;;6.30;;
44036;SDS011;62488;-37.670;-63.532;2022-09-01T08:21:21;26.50;;;6.95;;
44036;SDS011;62488;-37.670;-63.532;2022-09-01T08:23:50;23.10;;;6.57;;
44036;SDS011;62488;-37.670;-63.532;2022-09-01T08:26:19;16.40;;;6.32;;
44036;SDS011;62488;-37.670;-63.532;2022-09-01T08:28:48;13.02;;;5.15;;
44036;SDS011;62488;-37.670;-63.532;2022-09-01T08:31:16;11.30;;;4.97;;
44036;SDS011;62488;-37.670;-63.532;2022-09-01T08:36:13;17.73;;;6.18;;
44036;SDS011;62488;-37.670;-63.532;2022-09-01T08:38:42;14.35;;;5.55;;
44036;SDS011;62488;-37.670;-63.532;2022-09-01T08:41:15;22.30;;;5.97;;
44036;SDS011;62488;-37.670;-63.532;2022-09-01T08:46:33;14.85;;;5.50;;
44036;SDS011;62488;-37.670;-63.532;2022-09-01T08:49:24;12.77;;;5.68;;
44036;SDS011;62488;-37.670;-63.532;2022-09-01T08:51:53;17.17;;;6.22;;
44036;SDS011;62488;-37.670;-63.532;2022-09-01T08:54:34;17.42;;;5.30;;
44036;SDS011;62488;-37.670;-63.532;2022-09-01T08:57:16;12.82;;;6.18;;
44036;SDS011;62488;-37.670;-63.532;2022-09-01T08:59:52;16.92;;;5.30;;
44036;SDS011;62488;-37.670;-63.532;2022-09-01T09:16:27;8.60;;;4.00;;
44036;SDS011;62488;-37.670;-63.532;2022-09-01T09:22:08;11.55;;;4.72;;
44036;SDS011;62488;-37.670;-63.532;2022-09-01T09:24:49;12.45;;;4.05;;
44036;SDS011;62488;-37.670;-63.532;2022-09-01T09:27:27;15.27;;;4.63;;
44036;SDS011;62488;-37.670;-63.532;2022-09-01T09:29:57;19.27;;;4.97;;
44036;SDS011;62488;-37.670;-63.532;2022-09-01T09:35:31;15.82;;;4.90;;
44036;SDS011;62488;-37.670;-63.532;2022-09-01T09:38:22;10.35;;;3.72;;
44036;SDS011;62488;-37.670;-63.532;2022-09-01T09:41:06;20.70;;;5.18;;
44036;SDS011;62488;-37.670;-63.532;2022-09-01T09:43:42;24.35;;;4.93;;
44036;SDS011;62488;-37.670;-63.532;2022-09-01T09:51:56;13.23;;;4.47;;
44036;SDS011;62488;-37.670;-63.532;2022-09-01T09:54:30;11.43;;;4.57;;
44036;SDS011;62488;-37.670;-63.532;2022-09-01T09:57:08;13.18;;;4.32;;
44036;SDS011;62488;-37.670;-63.532;2022-09-01T10:04:58;16.63;;;5.13;;
44036;SDS011;62488;-37.670;-63.532;2022-09-01T10:07:36;14.65;;;4.57;;
44036;SDS011;62488;-37.670;-63.532;2022-09-01T10:10:07;13.30;;;4.13;;
44036;SDS011;62488;-37.670;-63.532;2022-09-01T10:12:53;11.98;;;3.67;;
44036;SDS011;62488;-37.670;-63.532;2022-09-01T10:15:23;18.08;;;5.85;;
44036;SDS011;62488;-37.670;-63.532;2022-09-01T10:17:54;7.55;;;3.70;;
44036;SDS011;62488;-37.670;-63.532;2022-09-01T10:20:31;14.73;;;4.13;;
44036;SDS011;62488;-37.670;-63.532;2022-09-01T10:23:03;13.50;;;4.82;;
44036;SDS011;62488;-37.670;-63.532;2022-09-01T10:25:30;11.20;;;3.53;;
44036;SDS011;62488;-37.670;-63.532;2022-09-01T10:28:18;12.27;;;4.43;;
44036;SDS011;62488;-37.670;-63.532;2022-09-01T10:30:50;13.50;;;3.97;;
44036;SDS011;62488;-37.670;-63.532;2022-09-01T10:33:21;16.55;;;5.60;;
44036;SDS011;62488;-37.670;-63.532;2022-09-01T10:35:49;19.55;;;4.43;;
44036;SDS011;62488;-37.670;-63.532;2022-09-01T10:38:19;20.92;;;4.70;;
44036;SDS011;62488;-37.670;-63.532;2022-09-01T10:40:52;26.02;;;4.78;;
44036;SDS011;62488;-37.670;-63.532;2022-09-01T10:43:44;9.50;;;4.28;;
44036;SDS011;62488;-37.670;-63.532;2022-09-01T10:48:55;19.83;;;4.38;;
44036;SDS011;62488;-37.670;-63.532;2022-09-01T10:54:03;18.48;;;4.40;;
44036;SDS011;62488;-37.670;-63.532;2022-09-01T10:56:52;24.15;;;4.88;;
44036;SDS011;62488;-37.670;-63.532;2022-09-01T11:02:08;22.38;;;4.60;;
44036;SDS011;62488;-37.670;-63.532;2022-09-01T11:10:06;19.70;;;4.65;;
44036;SDS011;62488;-37.670;-63.532;2022-09-01T11:18:15;14.73;;;3.47;;
44036;SDS011;62488;-37.670;-63.532;2022-09-01T11:20:50;13.02;;;4.57;;
44036;SDS011;62488;-37.670;-63.532;2022-09-01T11:23:27;23.30;;;4.30;;
44036;SDS011;62488;-37.670;-63.532;2022-09-01T11:26:43;19.33;;;4.38;;
44036;SDS011;62488;-37.670;-63.532;2022-09-01T11:29:00;14.00;;;3.47;;
44036;SDS011;62488;-37.670;-63.532;2022-09-01T11:31:28;21.00;;;3.15;;
44036;SDS011;62488;-37.670;-63.532;2022-09-01T11:34:09;10.18;;;2.92;;
44036;SDS011;62488;-37.670;-63.532;2022-09-01T11:47:16;40.50;;;3.50;;
44036;SDS011;62488;-37.670;-63.532;2022-09-01T11:50:28;15.95;;;3.63;;
44036;SDS011;62488;-37.670;-63.532;2022-09-01T11:55:34;21.67;;;4.35;;
44036;SDS011;62488;-37.670;-63.532;2022-09-01T11:58:04;18.80;;;4.00;;
44036;SDS011;62488;-37.670;-63.532;2022-09-01T12:00:36;20.80;;;4.47;;
44036;SDS011;62488;-37.670;-63.532;2022-09-01T12:03:19;24.92;;;5.43;;
44036;SDS011;62488;-37.670;-63.532;2022-09-01T12:05:51;43.53;;;6.97;;
44036;SDS011;62488;-37.670;-63.532;2022-09-01T12:08:27;26.05;;;4.00;;
44036;SDS011;62488;-37.670;-63.532;2022-09-01T12:13:38;26.80;;;4.85;;
44036;SDS011;62488;-37.670;-63.532;2022-09-01T12:16:07;25.30;;;5.13;;
44036;SDS011;62488;-37.670;-63.532;2022-09-01T12:18:42;21.33;;;4.32;;
44036;SDS011;62488;-37.670;-63.532;2022-09-01T12:21:33;31.85;;;6.82;;
44036;SDS011;62488;-37.670;-63.532;2022-09-01T12:24:09;32.78;;;4.20;;
44036;SDS011;62488;-37.670;-63.532;2022-09-01T12:26:44;14.23;;;3.63;;
44036;SDS011;62488;-37.670;-63.532;2022-09-01T12:29:15;22.00;;;4.35;;
44036;SDS011;62488;-37.670;-63.532;2022-09-01T12:31:44;18.92;;;3.85;;
44036;SDS011;62488;-37.670;-63.532;2022-09-01T12:42:28;25.98;;;4.82;;
44036;SDS011;62488;-37.670;-63.532;2022-09-01T12:44:58;22.25;;;4.03;;
44036;SDS011;62488;-37.670;-63.532;2022-09-01T12:47:45;34.13;;;4.93;;
44036;SDS011;62488;-37.670;-63.532;2022-09-01T12:52:45;29.65;;;4.38;;
44036;SDS011;62488;-37.670;-63.532;2022-09-01T12:55:53;21.13;;;3.75;;
44036;SDS011;62488;-37.670;-63.532;2022-09-01T12:58:22;23.30;;;3.47;;
44036;SDS011;62488;-37.670;-63.532;2022-09-01T13:00:59;16.33;;;3.08;;
44036;SDS011;62488;-37.670;-63.532;2022-09-01T13:03:27;30.88;;;4.38;;
44036;SDS011;62488;-37.670;-63.532;2022-09-01T13:05:55;30.60;;;4.38;;
44036;SDS011;62488;-37.670;-63.532;2022-09-01T13:08:28;12.80;;;2.97;;
44036;SDS011;62488;-37.670;-63.532;2022-09-01T13:11:00;60.55;;;6.20;;
44036;SDS011;62488;-37.670;-63.532;2022-09-01T13:13:30;53.58;;;6.65;;
44036;SDS011;62488;-37.670;-63.532;2022-09-01T13:16:00;23.77;;;3.25;;
44036;SDS011;62488;-37.670;-63.532;2022-09-01T13:18:37;13.68;;;3.95;;
44036;SDS011;62488;-37.670;-63.532;2022-09-01T13:21:05;30.85;;;3.60;;
44036;SDS011;62488;-37.670;-63.532;2022-09-01T13:23:32;26.35;;;6.82;;
44036;SDS011;62488;-37.670;-63.532;2022-09-01T13:26:00;41.88;;;5.10;;
44036;SDS011;62488;-37.670;-63.532;2022-09-01T13:28:27;31.58;;;6.20;;
44036;SDS011;62488;-37.670;-63.532;2022-09-01T13:30:55;20.13;;;3.50;;
44036;SDS011;62488;-37.670;-63.532;2022-09-01T13:33:24;41.13;;;4.40;;
44036;SDS011;62488;-37.670;-63.532;2022-09-01T13:35:52;79.60;;;5.35;;
44036;SDS011;62488;-37.670;-63.532;2022-09-01T13:38:20;17.55;;;2.70;;
44036;SDS011;62488;-37.670;-63.532;2022-09-01T13:40:48;19.50;;;3.00;;
44036;SDS011;62488;-37.670;-63.532;2022-09-01T13:43:17;32.65;;;4.60;;
44036;SDS011;62488;-37.670;-63.532;2022-09-01T13:45:45;23.13;;;3.58;;
44036;SDS011;62488;-37.670;-63.532;2022-09-01T13:48:13;40.33;;;5.20;;
44036;SDS011;62488;-37.670;-63.532;2022-09-01T13:50:41;73.55;;;8.73;;
44036;SDS011;62488;-37.670;-63.532;2022-09-01T13:53:11;25.08;;;3.03;;
44036;SDS011;62488;-37.670;-63.532;2022-09-01T13:55:38;45.35;;;4.07;;
44036;SDS011;62488;-37.670;-63.532;2022-09-01T13:58:06;43.22;;;6.60;;
44036;SDS011;62488;-37.670;-63.532;2022-09-01T14:00:35;18.95;;;3.35;;
44036;SDS011;62488;-37.670;-63.532;2022-09-01T14:03:06;12.95;;;2.95;;
44036;SDS011;62488;-37.670;-63.532;2022-09-01T14:05:45;23.60;;;4.35;;
44036;SDS011;62488;-37.670;-63.532;2022-09-01T14:08:15;13.52;;;3.90;;
44036;SDS011;62488;-37.670;-63.532;2022-09-01T14:10:45;27.90;;;3.75;;
44036;SDS011;62488;-37.670;-63.532;2022-09-01T14:13:15;68.57;;;7.88;;
44036;SDS011;62488;-37.670;-63.532;2022-09-01T14:15:42;17.60;;;4.03;;
44036;SDS011;62488;-37.670;-63.532;2022-09-01T14:18:11;64.53;;;7.20;;
44036;SDS011;62488;-37.670;-63.532;2022-09-01T14:20:41;31.70;;;4.78;;
44036;SDS011;62488;-37.670;-63.532;2022-09-01T14:23:11;41.75;;;5.10;;
44036;SDS011;62488;-37.670;-63.532;2022-09-01T14:25:43;38.17;;;3.92;;
44036;SDS011;62488;-37.670;-63.532;2022-09-01T14:28:13;30.98;;;4.70;;
44036;SDS011;62488;-37.670;-63.532;2022-09-01T14:30:40;46.45;;;4.00;;
44036;SDS011;62488;-37.670;-63.532;2022-09-01T14:33:08;26.10;;;3.33;;
44036;SDS011;62488;-37.670;-63.532;2022-09-01T14:35:37;35.28;;;3.40;;
44036;SDS011;62488;-37.670;-63.532;2022-09-01T14:40:34;97.28;;;8.77;;
44036;SDS011;62488;-37.670;-63.532;2022-09-01T14:43:05;48.80;;;5.03;;
44036;SDS011;62488;-37.670;-63.532;2022-09-01T14:45:39;37.45;;;3.35;;
44036;SDS011;62488;-37.670;-63.532;2022-09-01T14:48:13;50.55;;;4.63;;
44036;SDS011;62488;-37.670;-63.532;2022-09-01T14:50:42;15.82;;;2.78;;
44036;SDS011;62488;-37.670;-63.532;2022-09-01T14:53:11;25.48;;;2.85;;
44036;SDS011;62488;-37.670;-63.532;2022-09-01T14:55:43;31.30;;;3.28;;
44036;SDS011;62488;-37.670;-63.532;2022-09-01T14:58:10;36.10;;;4.50;;
44036;SDS011;62488;-37.670;-63.532;2022-09-01T15:00:46;27.38;;;3.08;;
44036;SDS011;62488;-37.670;-63.532;2022-09-01T15:03:17;28.90;;;4.05;;
44036;SDS011;62488;-37.670;-63.532;2022-09-01T15:05:44;51.90;;;5.82;;
44036;SDS011;62488;-37.670;-63.532;2022-09-01T15:08:11;44.92;;;4.18;;
44036;SDS011;62488;-37.670;-63.532;2022-09-01T15:10:38;14.15;;;2.28;;
44036;SDS011;62488;-37.670;-63.532;2022-09-01T15:13:05;65.78;;;6.07;;
44036;SDS011;62488;-37.670;-63.532;2022-09-01T15:15:33;18.00;;;2.63;;
44036;SDS011;62488;-37.670;-63.532;2022-09-01T15:18:00;10.30;;;1.55;;
44036;SDS011;62488;-37.670;-63.532;2022-09-01T15:20:27;8.00;;;1.42;;
44036;SDS011;62488;-37.670;-63.532;2022-09-01T15:23:12;19.98;;;2.13;;
44036;SDS011;62488;-37.670;-63.532;2022-09-01T15:25:45;17.50;;;2.28;;
44036;SDS011;62488;-37.670;-63.532;2022-09-01T15:28:14;13.82;;;1.80;;
44036;SDS011;62488;-37.670;-63.532;2022-09-01T15:30:41;11.98;;;1.85;;
44036;SDS011;62488;-37.670;-63.532;2022-09-01T15:33:10;17.50;;;1.63;;
44036;SDS011;62488;-37.670;-63.532;2022-09-01T15:35:38;24.88;;;2.63;;
44036;SDS011;62488;-37.670;-63.532;2022-09-01T15:38:05;27.33;;;2.40;;
44036;SDS011;62488;-37.670;-63.532;2022-09-01T15:40:38;14.70;;;1.65;;
44036;SDS011;62488;-37.670;-63.532;2022-09-01T15:43:07;14.77;;;2.90;;
44036;SDS011;62488;-37.670;-63.532;2022-09-01T15:45:36;11.00;;;1.85;;
44036;SDS011;62488;-37.670;-63.532;2022-09-01T15:48:03;32.72;;;2.95;;
44036;SDS011;62488;-37.670;-63.532;2022-09-01T15:50:30;12.60;;;1.77;;
44036;SDS011;62488;-37.670;-63.532;2022-09-01T15:52:58;14.25;;;3.78;;
44036;SDS011;62488;-37.670;-63.532;2022-09-01T15:55:29;6.97;;;2.35;;
44036;SDS011;62488;-37.670;-63.532;2022-09-01T15:58:02;7.97;;;2.70;;
44036;SDS011;62488;-37.670;-63.532;2022-09-01T16:00:29;11.82;;;3.25;;
44036;SDS011;62488;-37.670;-63.532;2022-09-01T16:02:57;21.00;;;3.92;;